Nearby METAR Reports

 

YSCB - Canberra (civ/Mi, Australia
Distance from station: NNE 21km
Updated: 13/08/2022 22:30
Overcast
Overcast
 Wind from NNW
Wind: NNW 11 km/h
Temperature: 6°C
Wind Chill: 4°C
Dew Point: 6°C
Humidity: 100%
Barometer: 1009 hPa
Clouds: Overcast
Visibility: 10 km
Cloud details: Overcast 732 m
2022/08/13 12:30 YSCB 131230Z AUTO 33006KT 9999 // OVC024 06/06 Q1009
YCOM - Cooma Snowy Mtns, Australia
Distance from station: S 94km
Updated: 13/08/2022 12:17
NOT Current
Mostly cloudy
Mostly cloudy
 Wind from SSW
Wind: SSW 9 km/h
Temperature: 8°C
Wind Chill: 6°C
Dew Point: 5°C
Humidity: 82%
Barometer: 1010 hPa
Clouds: Mostly cloudy
Visibility: 10 km
Cloud details: Mostly cloudy 518 m
2022/08/13 02:17 YCOM 130217Z AUTO 20005KT 9999 // BKN017 08/05 Q1010
 
YSNW - Nowra (aus-Navy), Australia
Distance from station: ENE 140km
Updated: 13/08/2022 15:26
NOT Current
Clear
Clear
 Wind from WNW
Wind: WNW 28 km/h
Temperature: 18°C
Dew Point: 2°C
Humidity: 34%
Barometer: 1007 hPa
Clouds: Clear
Visibility: 10 km
2022/08/13 05:26 YSNW 130526Z AUTO 29015KT 9999 // NCD 18/02 Q1007
YSWG - Wagga Wagga(Cv/M, Australia
Distance from station: WNW 153km
Updated: 13/08/2022 17:30
NOT Current
Overcast
Overcast
 Wind from calm
Wind: Calm
Temperature: 9°C
Dew Point: 8°C
Humidity: 94%
Barometer: 1010 hPa
Clouds: Overcast
Visibility: 8 km
Cloud details: Overcast 1372 m
2022/08/13 07:30 YSWG 130730Z AUTO 00000KT 8000 // OVC045 09/08 Q1010
 
YMER - Merimbula Arpt, Australia
Distance from station: SSE 177km
Updated: 13/08/2022 06:30
NOT Current
Rain, Mostly cloudy
Rain, Mostly cloudy
 Wind from W
Wind: W 20 km/h
Temperature: 11°C
Dew Point: 11°C
Humidity: 100%
Barometer: 1012 hPa
Summary: Rain
Clouds: Mostly cloudy
Visibility: 5 km
Cloud details: Partly cloudy 152 m
Partly cloudy 488 m
Mostly cloudy 610 m
2022/08/12 20:30 YMER 122030Z AUTO 26011KT 110V270 4900 RA SCT005 SCT016 BKN020 11/11 Q1012
YMAY - Albury Airport, Australia
Distance from station: WSW 207km
Updated: 13/08/2022 20:23
NOT Current
Mostly cloudy
Mostly cloudy
 Wind from WNW
Wind: WNW 9 km/h
Temperature: 10°C
Wind Chill: 9°C
Dew Point: 9°C
Humidity: 94%
Barometer: 1010 hPa
Clouds: Mostly cloudy
Visibility: 10 km
Cloud details: Partly cloudy 610 m
Mostly cloudy 823 m
Mostly cloudy 1463 m
2022/08/13 10:23 YMAY 131023Z AUTO 30005KT 9999 // SCT020 BKN027 BKN048 10/09 Q1010
 
YNAR - Narrandera, Australia
Distance from station: WNW 250km
Updated: 13/08/2022 03:50
NOT Current
Overcast
Overcast
 Wind from E
Wind: E 9 km/h
Temperature: 7°C
Wind Chill: 6°C
Dew Point: 7°C
Humidity: 100%
Barometer: 1012 hPa
Clouds: Overcast
Visibility: 10 km
Cloud details: Partly cloudy 30 m
Overcast 3200 m
2022/08/12 17:50 YNAR 121750Z AUTO 08005KT 9999 // SCT001 OVC105 07/07 Q1012
YSSY - Sydney Intl Airp, Australia
Distance from station: NE 253km
Updated: 13/08/2022 23:00
Clear
Clear
 Wind from NW
Wind: NW 17 km/h
Temperature: 12°C
Dew Point: 5°C
Humidity: 63%
Barometer: 1010 hPa
Summary: Clear
Visibility: greater than 10 km
2022/08/13 13:00 YSSY 131300Z 31009KT CAVOK 12/05 Q1010
 
YSRI - Richmond (aus-Af, Australia
Distance from station: NE 257km
Updated: 13/08/2022 23:00
Partly cloudy
Partly cloudy
 Wind from NNE
Wind: NNE 4 km/h
Temperature: 8°C
Dew Point: 8°C
Humidity: 100%
Barometer: 1010 hPa
Clouds: Partly cloudy
Visibility: 10 km
Cloud details: Partly cloudy 2682 m
Partly cloudy 3353 m
2022/08/13 13:00 YSRI 131300Z AUTO 03002KT 9999 // SCT088 SCT110 08/08 Q1010
YWGT - Wangaratta Arp, Australia
Distance from station: WSW 274km
Updated: 13/08/2022 13:16
NOT Current
Mostly cloudy
Mostly cloudy
 Wind from N
Wind: N 7 km/h
Temperature: 14°C
Dew Point: 7°C
Humidity: 63%
Barometer: 1011 hPa
Clouds: Mostly cloudy
Visibility: 10 km
Cloud details: Mostly cloudy 1158 m
Mostly cloudy 3048 m
2022/08/13 03:16 YWGT 130316Z AUTO 35004KT 9999 // BKN038 BKN100 14/07 Q1011
 
YGTH - Griffith Arpt, Australia
Distance from station: WNW 308km
Updated: 13/08/2022 12:16
NOT Current
Light rain, Showers, Mostly cloudy
Light rain, Showers, Mostly cloudy
 Wind from NW
Wind: NW 17 km/h
Temperature: 13°C
Dew Point: 9°C
Humidity: 77%
Barometer: 1012 hPa
Summary: Light rain, Showers
Clouds: Mostly cloudy
Visibility: 10 km
Cloud details: Partly cloudy 305 m
Partly cloudy 488 m
Mostly cloudy 610 m
2022/08/13 02:16 YGTH 130216Z AUTO 32009KT 9999 -SHRA SCT010 SCT016 BKN020 13/09 Q1012